Latest Weather Observations for Badgingarra

IDW60801

Issued at 4:33 pm WST Wednesday 10 August 2022 (issued every 10 minutes, with the page automatically refreshed every 10 minutes)

About weather observations | Map of weather stations | Latest weather observations for WA | Other Formats
Station Details ID: 009037 Name: BADGINGARRA RESEARCH STN Lat: -30.34 Lon: 115.54 Height: 275.0 m
Data from the previous 72 hours. | See also: Recent months at Badgingarra
Date/Time
WST
Temp
°C
App
Temp
°C
Dew
Point
°C
Rel
Hum
%
Delta-T
°C
Wind Press
QNH
hPa
Press
MSL
hPa
Rain since
9am
mm
Dir  Spd
km/h
Gust
km/h
Spd
kts
Gust
kts
10/04:30pm 13.5 10.4 7.3 66 3.1 S 13 20 7 11 - - 0.0
10/04:00pm 14.1 11.1 7.6 65 3.3 S 13 20 7 11 - - 0.0
10/03:30pm 14.1 11.6 8.3 68 2.9 SE 11 15 6 8 - - 0.0
10/03:00pm 13.6 10.4 6.9 64 3.3 SSE 13 22 7 12 - - 0.0
10/02:30pm 14.3 11.1 8.3 67 3.0 S 15 19 8 10 - - 0.0
10/02:00pm 14.7 12.0 9.1 69 2.9 SSE 13 20 7 11 - - 0.0
10/01:30pm 14.3 11.2 8.9 70 2.8 SSE 15 20 8 11 - - 0.0
10/01:00pm 14.2 11.5 7.5 64 3.3 SE 11 17 6 9 - - 0.0
10/12:30pm 14.2 11.6 7.9 66 3.2 SSE 11 19 6 10 - - 0.0
10/12:00pm 13.9 12.1 7.9 67 3.0 S 7 13 4 7 - - 0.0
10/11:30am 12.9 12.0 7.6 70 2.6 SSE 2 11 1 6 - - 0.0
10/11:00am 13.0 11.5 8.5 74 2.3 S 6 9 3 5 - - 0.0
10/10:30am 12.3 10.8 8.6 78 1.9 S 6 11 3 6 - - 0.0
10/10:00am 10.7 10.3 8.3 85 1.2 CALM 0 0 0 0 - - 0.0
10/09:30am 10.0 9.1 7.6 85 1.2 NNE 2 6 1 3 - - 0.0
10/09:00am 9.0 7.6 7.3 89 0.8 NNE 4 6 2 3 - - 1.4
10/08:30am 8.0 6.6 7.2 95 0.4 NNE 4 6 2 3 - - 1.4
10/08:00am 6.4 5.6 6.4 100 0.0 CALM 0 0 0 0 - - 1.4
10/07:30am 3.9 2.0 3.0 94 0.4 N 2 4 1 2 - - 1.4
10/07:00am 4.5 2.4 4.1 97 0.2 NNE 4 4 2 2 - - 1.4
10/06:30am 4.0 1.8 3.1 94 0.4 NNE 4 4 2 2 - - 1.4
10/06:00am 4.2 2.8 3.5 95 0.3 CALM 0 0 0 0 - - 1.4
10/05:30am 4.3 2.1 3.6 95 0.3 N 4 6 2 3 - - 1.4
10/05:00am 4.7 2.7 4.4 98 0.1 N 4 6 2 3 - - 1.4
10/04:30am 4.3 1.9 4.3 100 0.0 N 6 7 3 4 - - 1.4
10/04:00am 4.4 3.0 3.8 96 0.3 CALM 0 0 0 0 - - 1.4
10/03:30am 4.4 3.0 3.5 94 0.4 CALM 0 0 0 0 - - 1.4
10/03:00am 4.2 2.8 3.3 94 0.4 CALM 0 0 0 0 - - 1.4
10/02:30am 5.4 4.2 4.7 95 0.3 CALM 0 0 0 0 - - 1.4
10/02:00am 5.3 4.1 4.7 96 0.3 CALM 0 0 0 0 - - 1.4
10/01:30am 3.5 1.9 2.6 94 0.4 CALM 0 4 0 2 - - 1.4
10/01:00am 3.9 2.0 2.9 93 0.4 N 2 6 1 3 - - 1.4
10/12:30am 4.6 2.1 3.6 93 0.4 N 6 6 3 3 - - 1.4
10/12:00am 5.3 3.7 4.6 95 0.3 E 2 4 1 2 - - 1.4
 
Date/Time
WST
Temp
°C
App
Temp
°C
Dew
Point
°C
Rel
Hum
%
Delta-T
°C
Wind Press
QNH
hPa
Press
MSL
hPa
Rain since
9am
mm
Dir  Spd
km/h
Gust
km/h
Spd
kts
Gust
kts
09/11:30pm 4.4 2.2 3.2 92 0.5 E 4 6 2 3 - - 1.4
09/11:00pm 5.7 4.5 4.7 93 0.4 CALM 0 0 0 0 - - 1.4
09/10:30pm 6.0 3.6 5.1 94 0.4 S 7 9 4 5 - - 1.4
09/10:00pm 6.0 2.8 5.0 93 0.4 SSE 11 19 6 10 - - 1.2
09/09:30pm 6.3 3.5 5.1 92 0.5 SW 9 11 5 6 - - 1.2
09/09:00pm 6.7 3.2 5.5 92 0.5 SW 13 19 7 10 - - 1.2
09/08:30pm 5.8 2.9 4.6 92 0.5 SSW 9 11 5 6 - - 1.2
09/08:00pm 6.7 3.3 5.8 94 0.4 SW 13 15 7 8 - - 1.2
09/07:30pm 6.5 3.3 5.3 92 0.5 WSW 11 15 6 8 - - 1.2
09/07:00pm 6.0 2.7 4.8 92 0.5 WSW 11 13 6 7 - - 1.2
09/06:30pm 7.0 3.4 4.8 86 1.0 SW 13 17 7 9 - - 1.2
09/06:00pm 8.7 3.1 5.3 79 1.6 SW 24 33 13 18 - - 1.2
09/05:30pm 9.2 4.4 5.4 77 1.7 SW 20 30 11 16 - - 1.2
09/05:00pm 10.4 4.9 6.0 74 2.1 SW 24 33 13 18 - - 1.2
09/04:30pm 11.2 5.5 6.5 73 2.2 SW 26 37 14 20 - - 1.2
09/04:00pm 10.7 3.3 4.8 67 2.7 SW 33 43 18 23 - - 1.2
09/03:30pm 12.5 5.5 6.1 65 3.1 SW 32 46 17 25 - - 1.2
09/03:00pm 10.9 4.1 7.0 77 1.9 SW 32 48 17 26 - - 1.2
09/02:33pm 12.5 5.1 5.0 60 3.5 SW 33 54 18 29 - - 1.2
09/02:30pm 12.9 6.1 6.9 67 2.9 SW 32 46 17 25 - - 1.2
09/02:00pm 11.8 3.6 6.7 71 2.5 SW 39 50 21 27 - - 1.2
09/01:30pm 10.7 3.2 6.5 75 2.0 SW 35 50 19 27 - - 1.2
09/01:00pm 9.1 1.5 7.5 90 0.8 SSW 37 67 20 36 - - 1.2
09/12:30pm 11.8 4.5 7.1 73 2.3 SW 35 56 19 30 - - 0.6
09/12:25pm 12.2 5.9 7.3 72 2.4 SW 30 56 16 30 - - 0.6
09/12:00pm 11.0 5.2 7.9 81 1.5 SW 28 43 15 23 - - 0.6
09/11:43am 10.1 3.4 7.3 83 1.4 SW 32 54 17 29 - - 0.6
09/11:30am 8.8 2.0 6.9 88 0.9 SSW 32 43 17 23 - - 0.6
09/11:00am 8.0 0.2 5.1 82 1.3 SW 35 57 19 31 - - 0.6
09/10:41am 9.7 2.5 7.6 87 1.0 SW 35 57 19 31 - - 0.4
09/10:35am 10.4 4.0 7.1 80 1.6 SW 30 57 16 31 - - 0.4
09/10:30am 10.6 6.3 8.0 84 1.3 SW 20 32 11 17 - - 0.4
09/10:00am 8.4 4.5 7.3 93 0.5 SSW 17 24 9 13 - - 0.4
09/09:33am 6.7 -2.2 5.0 89 0.8 SW 41 72 22 39 - - 0.4
09/09:30am 7.2 -1.3 5.3 88 0.9 SW 39 72 21 39 - - 0.4
09/09:26am 8.7 2.1 6.0 83 1.3 WSW 30 72 16 39 - - 0.0
09/09:00am 8.6 4.3 6.9 89 0.8 WSW 19 30 10 16 - - 12.6
09/08:30am 6.8 2.5 5.1 89 0.8 SW 17 26 9 14 - - 12.6
09/08:17am 7.1 0.4 5.4 89 0.8 SW 30 48 16 26 - - 12.6
09/08:10am 7.4 2.2 5.5 88 0.9 WSW 22 48 12 26 - - 12.6
09/08:00am 7.1 2.5 5.7 91 0.6 WSW 19 28 10 15 - - 12.4
09/07:30am 6.5 1.5 4.8 89 0.8 WSW 20 35 11 19 - - 12.2
09/07:05am 6.5 1.1 4.7 88 0.8 SW 22 46 12 25 - - 11.6
09/07:04am 6.5 1.6 5.0 90 0.7 WSW 20 46 11 25 - - 11.6
09/07:00am 6.3 2.4 5.3 93 0.4 WSW 15 26 8 14 - - 11.4
09/06:30am 6.0 2.4 5.0 93 0.4 W 13 19 7 10 - - 11.4
09/06:00am 5.5 3.5 4.5 93 0.4 NW 4 4 2 2 - - 9.8
09/05:30am 5.4 2.8 4.4 93 0.4 WNW 7 9 4 5 - - 9.8
09/05:00am 6.3 2.7 5.1 92 0.5 WSW 13 20 7 11 - - 9.8
09/04:30am 5.8 3.3 4.9 94 0.4 NNW 7 9 4 5 - - 9.6
09/04:00am 6.7 2.1 5.5 92 0.5 WSW 19 32 10 17 - - 9.6
09/03:53am 7.0 0.7 5.8 92 0.5 WSW 28 46 15 25 - - 9.6
09/03:30am 7.2 3.9 6.3 94 0.4 W 13 17 7 9 - - 8.8
09/03:00am 7.3 2.8 6.1 92 0.6 WSW 19 28 10 15 - - 8.0
09/02:30am 7.1 2.8 5.4 89 0.8 WNW 17 28 9 15 - - 7.4
09/02:00am 7.5 2.9 6.3 92 0.6 SW 20 32 11 17 - - 7.0
09/01:30am 7.0 3.9 5.6 91 0.6 W 11 13 6 7 - - 6.8
09/01:00am 7.6 4.4 6.7 94 0.4 WNW 13 30 7 16 - - 6.6
09/12:30am 6.9 4.2 5.8 93 0.5 WNW 9 13 5 7 - - 6.4
09/12:00am 7.3 4.7 6.1 92 0.6 NW 9 11 5 6 - - 6.4
 
Date/Time
WST
Temp
°C
App
Temp
°C
Dew
Point
°C
Rel
Hum
%
Delta-T
°C
Wind Press
QNH
hPa
Press
MSL
hPa
Rain since
9am
mm
Dir  Spd
km/h
Gust
km/h
Spd
kts
Gust
kts
08/11:30pm 7.9 5.5 7.0 94 0.4 WSW 9 26 5 14 - - 6.4
08/11:00pm 8.3 5.6 7.2 93 0.5 WSW 11 17 6 9 - - 6.4
08/10:30pm 8.5 5.8 7.4 93 0.5 W 11 19 6 10 - - 6.0
08/10:00pm 7.8 4.9 6.4 91 0.7 WSW 11 13 6 7 - - 5.6
08/09:30pm 9.2 5.4 7.6 90 0.8 WSW 17 24 9 13 - - 5.6
08/09:00pm 9.2 6.7 8.0 92 0.6 W 11 17 6 9 - - 5.6
08/08:30pm 8.8 6.5 7.6 92 0.6 SW 9 13 5 7 - - 5.6
08/08:00pm 9.7 5.8 8.5 92 0.6 SW 19 24 10 13 - - 5.6
08/07:30pm 9.5 6.3 8.3 92 0.6 SW 15 20 8 11 - - 5.6
08/07:00pm 9.9 7.6 9.0 94 0.5 WSW 11 17 6 9 - - 5.6
08/06:30pm 11.2 9.9 11.2 100 0.0 W 9 11 5 6 - - 5.6
08/06:00pm 11.4 10.1 11.4 100 0.0 W 9 13 5 7 - - 5.6
08/05:30pm 11.6 9.6 11.6 100 0.0 WSW 13 17 7 9 - - 5.4
08/05:00pm 11.9 10.4 11.9 100 0.0 W 11 17 6 9 - - 4.8
08/04:30pm 12.0 9.8 12.0 100 0.0 SW 15 20 8 11 - - 3.8
08/04:00pm 12.1 9.5 12.1 100 0.0 WSW 17 20 9 11 - - 3.0
08/03:30pm 12.7 11.1 12.7 100 0.0 WSW 13 19 7 10 - - 2.0
08/03:00pm 12.7 9.7 12.7 100 0.0 WSW 20 28 11 15 - - 1.6
08/02:30pm 13.1 8.0 12.0 93 0.6 W 30 41 16 22 - - 0.2
08/02:10pm 15.8 9.8 10.1 69 3.0 WNW 32 50 17 27 - - 0.0
08/02:00pm 16.4 10.8 10.0 66 3.4 WNW 30 41 16 22 - - 0.0
08/01:35pm 16.9 11.0 10.3 65 3.5 WNW 32 50 17 27 - - 0.0
08/01:30pm 16.6 10.2 9.5 63 3.8 WNW 33 50 18 27 - - 0.0
08/01:00pm 16.7 12.2 9.9 64 3.6 WNW 24 41 13 22 - - 0.0
08/12:30pm 17.1 11.6 11.8 71 2.9 NW 32 43 17 23 - - 0.0
08/12:00pm 16.9 12.5 12.8 77 2.3 NNW 28 39 15 21 - - 0.0
08/11:30am 15.6 10.6 13.4 87 1.2 NNW 32 41 17 22 - - 0.0
08/11:00am 15.5 10.9 12.3 81 1.8 NNW 28 37 15 20 - - 0.0
08/10:30am 13.8 10.3 12.2 90 0.9 NNW 22 33 12 18 - - 0.0
08/10:00am 14.9 11.3 11.9 82 1.6 N 22 28 12 15 - - 0.0
08/09:30am 14.3 11.1 11.8 85 1.4 N 20 26 11 14 - - 0.0
08/09:00am 12.6 9.6 10.7 88 1.0 N 17 20 9 11 - - 0.6
08/08:30am 11.0 8.0 9.4 90 0.8 N 15 20 8 11 - - 0.6
08/08:00am 9.7 7.3 8.5 92 0.6 N 11 17 6 9 - - 0.6
08/07:30am 8.6 6.0 7.7 94 0.4 NNE 11 17 6 9 - - 0.6
08/07:00am 8.2 5.5 7.3 94 0.4 NNE 11 13 6 7 - - 0.6
08/06:30am 8.0 5.2 7.1 94 0.4 N 11 13 6 7 - - 0.6
08/06:00am 7.0 4.4 6.1 94 0.4 N 9 11 5 6 - - 0.6
08/05:30am 7.2 5.0 6.1 93 0.5 N 7 11 4 6 - - 0.6
08/05:00am 6.5 3.7 5.1 91 0.6 N 9 13 5 7 - - 0.6
08/04:30am 7.0 4.3 5.6 91 0.6 NNE 9 11 5 6 - - 0.6
08/04:00am 7.8 5.9 6.7 93 0.5 N 6 7 3 4 - - 0.6
08/03:30am 7.4 5.2 6.2 92 0.6 N 7 7 4 4 - - 0.6
08/03:00am 7.4 5.3 6.0 91 0.6 N 6 7 3 4 - - 0.6
08/02:30am 6.9 4.6 5.7 92 0.5 NNE 7 9 4 5 - - 0.6
08/02:00am 7.0 4.9 5.6 91 0.6 NNE 6 7 3 4 - - 0.6
08/01:30am 7.3 5.2 5.8 90 0.7 NNE 6 7 3 4 - - 0.6
08/01:00am 7.8 5.8 6.4 91 0.7 NNE 6 6 3 3 - - 0.6
08/12:30am 7.9 6.4 6.8 93 0.5 NNE 4 6 2 3 - - 0.6
08/12:00am 7.7 5.8 6.6 93 0.5 NNE 6 6 3 3 - - 0.6
 
Date/Time
WST
Temp
°C
App
Temp
°C
Dew
Point
°C
Rel
Hum
%
Delta-T
°C
Wind Press
QNH
hPa
Press
MSL
hPa
Rain since
9am
mm
Dir  Spd
km/h
Gust
km/h
Spd
kts
Gust
kts
07/11:30pm 7.2 5.2 6.3 94 0.4 NNE 6 6 3 3 - - 0.6
07/11:00pm 7.7 5.8 6.8 94 0.4 NNE 6 6 3 3 - - 0.6
07/10:30pm 7.5 6.3 6.6 94 0.4 NNW 2 6 1 3 - - 0.6
07/10:00pm 7.6 6.8 6.5 93 0.5 CALM 0 0 0 0 - - 0.6
07/09:30pm 7.6 6.8 6.4 92 0.6 CALM 0 0 0 0 - - 0.6
07/09:00pm 8.0 6.5 6.6 91 0.7 NW 4 4 2 2 - - 0.6
07/08:30pm 8.2 7.1 6.7 90 0.7 SW 2 4 1 2 - - 0.6
07/08:00pm 8.5 7.0 6.8 89 0.8 SW 4 6 2 3 - - 0.6
07/07:30pm 9.4 8.7 7.0 85 1.1 CALM 0 2 0 1 - - 0.6
07/07:00pm 9.5 8.1 7.4 87 1.0 WSW 4 4 2 2 - - 0.6
07/06:30pm 9.8 8.1 7.6 86 1.1 SW 6 7 3 4 - - 0.6
07/06:00pm 10.4 8.6 8.0 85 1.2 SW 7 9 4 5 - - 0.6
07/05:30pm 12.2 10.3 8.9 80 1.7 SW 9 13 5 7 - - 0.6
07/05:00pm 13.7 11.1 9.2 74 2.3 SW 13 17 7 9 - - 0.6

Other formats

Comma delimited format used in spreadsheet applications
http://www.bom.gov.au/fwo/IDW60801/IDW60801.94603.axf

JavaScript Object Notation format (JSON) in row-major order
http://www.bom.gov.au/fwo/IDW60801/IDW60801.94603.json

Data quality

Most of these data are generated automatically and are frequently updated. Quality checks on data are not normally performed. It is possible for incorrect values to appear. Refer to information at About Latest Weather Observations and please check the disclaimer before using these data.